PWSweather.com
Personal Weather Stations
Station Observations
KNCCHINA3
Red Tractor Trail, China Grove, NC 28023

Red Tractor TrailChina Grove, NC 28023

Lat: 35.59751, Lon: -80.60201

Elevation: 800

Station Type: Oregon Scientific WMR 968

http://www.joesweathergarage.com

High Low Average
Temperature 99.0°F37.2°F 33.8°F1.0°F 56.1°F13.4°F
Dew Point 69.2°F20.7°F 19.0°F-7.2°F 34.3°F1.3°F
Winds 11.3 mph SE18.2 mph SE Calm Calm 2.6 mph 4.2 mph
Wind Gusts 19.6 mph31.5 mph -- 5.0 mph8.0 mph
Humidity 74% 31% 45%
Pressure 30.45 in1031.20 in 29.94 in1013.90 in -
Precipitation 0.00 in0.00 in - -
Hour Temp Dew Point Humidity Winds Wind Gusts Pressure Precip Precip Rate Daily Precip Total
12:03 AM 34.0°F1.1°C 19.0°F-7.2°C 54% Calm Calm -- 30.30 in1026.1 mb 0.00 in0.0 mm 0.00 in0.0 mm 0.00 in0.0 mm
12:08 AM 34.0°F1.1°C 19.0°F-7.2°C 54% Calm Calm -- 30.30 in1026.1 mb 0.00 in0.0 mm 0.00 in0.0 mm 0.00 in0.0 mm
12:13 AM 33.8°F1.0°C 19.3°F-7.1°C 55% Calm Calm -- 30.30 in1026.1 mb 0.00 in0.0 mm 0.00 in0.0 mm 0.00 in0.0 mm
12:18 AM 33.8°F1.0°C 19.3°F-7.1°C 55% Calm Calm -- 30.30 in1026.1 mb 0.00 in0.0 mm 0.00 in0.0 mm 0.00 in0.0 mm
12:23 AM 33.8°F1.0°C 19.3°F-7.1°C 55% Calm Calm -- 30.30 in1026.1 mb 0.00 in0.0 mm 0.00 in0.0 mm 0.00 in0.0 mm
12:28 AM 33.8°F1.0°C 19.3°F-7.1°C 55% Calm Calm -- 30.30 in1026.1 mb 0.00 in0.0 mm 0.00 in0.0 mm 0.00 in0.0 mm
12:33 AM 34.2°F1.2°C 19.7°F-6.8°C 55% Calm Calm -- 30.33 in1027.1 mb 0.00 in0.0 mm 0.00 in0.0 mm 0.00 in0.0 mm
12:38 AM 34.2°F1.2°C 19.7°F-6.8°C 55% Calm Calm -- 30.33 in1027.1 mb 0.00 in0.0 mm 0.00 in0.0 mm 0.00 in0.0 mm
12:43 AM 34.0°F1.1°C 19.5°F-6.9°C 55% Calm Calm -- 30.33 in1027.1 mb 0.00 in0.0 mm 0.00 in0.0 mm 0.00 in0.0 mm
12:48 AM 34.3°F1.3°C 19.8°F-6.8°C 55% Calm Calm -- 30.27 in1025.1 mb 0.00 in0.0 mm 0.00 in0.0 mm 0.00 in0.0 mm
12:54 AM 34.5°F1.4°C 20.0°F-6.7°C 55% Calm Calm -- 30.27 in1025.1 mb 0.00 in0.0 mm 0.00 in0.0 mm 0.00 in0.0 mm
12:59 AM 34.7°F1.5°C 20.2°F-6.6°C 55% Calm Calm -- 30.27 in1025.1 mb 0.00 in0.0 mm 0.00 in0.0 mm 0.00 in0.0 mm
01:04 AM 34.9°F1.6°C 20.4°F-6.4°C 55% Calm Calm -- 30.27 in1025.1 mb 0.00 in0.0 mm 0.00 in0.0 mm 0.00 in0.0 mm
01:09 AM 34.9°F1.6°C 20.4°F-6.4°C 55% Calm Calm -- 30.27 in1025.1 mb 0.00 in0.0 mm 0.00 in0.0 mm 0.00 in0.0 mm
01:14 AM 34.7°F1.5°C 20.2°F-6.6°C 55% Calm Calm -- 30.27 in1025.1 mb 0.00 in0.0 mm 0.00 in0.0 mm 0.00 in0.0 mm
01:19 AM 34.9°F1.6°C 20.4°F-6.4°C 55% Calm Calm -- 30.30 in1026.1 mb 0.00 in0.0 mm 0.00 in0.0 mm 0.00 in0.0 mm
01:24 AM 35.2°F1.8°C 20.6°F-6.3°C 55% 2.6 mph WNW4.2 kmh WNW 4.0 mph6.4 kmh 30.30 in1026.1 mb 0.00 in0.0 mm 0.00 in0.0 mm 0.00 in0.0 mm
01:29 AM 35.8°F2.1°C 20.7°F-6.3°C 54% 2.2 mph WNW3.5 kmh WNW 4.0 mph6.4 kmh 30.30 in1026.1 mb 0.00 in0.0 mm 0.00 in0.0 mm 0.00 in0.0 mm
01:35 AM 36.1°F2.3°C 21.0°F-6.1°C 54% Calm Calm 3.2 mph5.1 kmh 30.30 in1026.1 mb 0.00 in0.0 mm 0.00 in0.0 mm 0.00 in0.0 mm
01:40 AM 36.0°F2.2°C 20.9°F-6.2°C 54% Calm Calm 2.6 mph4.2 kmh 30.30 in1026.1 mb 0.00 in0.0 mm 0.00 in0.0 mm 0.00 in0.0 mm
01:45 AM 35.8°F2.1°C 20.7°F-6.3°C 54% Calm Calm -- 30.30 in1026.1 mb 0.00 in0.0 mm 0.00 in0.0 mm 0.00 in0.0 mm
01:50 AM 35.8°F2.1°C 20.2°F-6.6°C 53% Calm Calm -- 30.30 in1026.1 mb 0.00 in0.0 mm 0.00 in0.0 mm 0.00 in0.0 mm
01:56 AM 36.0°F2.2°C 20.4°F-6.4°C 53% Calm Calm -- 30.30 in1026.1 mb 0.00 in0.0 mm 0.00 in0.0 mm 0.00 in0.0 mm
02:01 AM 36.0°F2.2°C 20.4°F-6.4°C 53% Calm Calm -- 30.30 in1026.1 mb 0.00 in0.0 mm 0.00 in0.0 mm 0.00 in0.0 mm
02:06 AM 35.8°F2.1°C 20.2°F-6.6°C 53% Calm Calm -- 30.30 in1026.1 mb 0.00 in0.0 mm 0.00 in0.0 mm 0.00 in0.0 mm
02:11 AM 36.1°F2.3°C 20.5°F-6.4°C 53% 2.6 mph WNW4.2 kmh WNW 4.0 mph6.4 kmh 30.30 in1026.1 mb 0.00 in0.0 mm 0.00 in0.0 mm 0.00 in0.0 mm
02:16 AM 36.3°F2.4°C 20.7°F-6.3°C 53% Calm Calm 4.0 mph6.4 kmh 30.30 in1026.1 mb 0.00 in0.0 mm 0.00 in0.0 mm 0.00 in0.0 mm
02:21 AM 36.3°F2.4°C 20.2°F-6.6°C 52% Calm Calm -- 30.30 in1026.1 mb 0.00 in0.0 mm 0.00 in0.0 mm 0.00 in0.0 mm
02:27 AM 36.9°F2.7°C 20.7°F-6.3°C 52% Calm Calm -- 30.30 in1026.1 mb 0.00 in0.0 mm 0.00 in0.0 mm 0.00 in0.0 mm
02:32 AM 37.4°F3.0°C 21.2°F-6.0°C 52% Calm Calm -- 30.30 in1026.1 mb 0.00 in0.0 mm 0.00 in0.0 mm 0.00 in0.0 mm
02:38 AM 37.0°F2.8°C 21.3°F-5.9°C 53% 1.8 mph WNW2.9 kmh WNW 2.6 mph4.2 kmh 30.30 in1026.1 mb 0.00 in0.0 mm 0.00 in0.0 mm 0.00 in0.0 mm
02:43 AM 37.0°F2.8°C 21.3°F-5.9°C 53% 3.8 mph S6.1 kmh S 5.4 mph8.7 kmh 30.30 in1026.1 mb 0.00 in0.0 mm 0.00 in0.0 mm 0.00 in0.0 mm
02:48 AM 37.8°F3.2°C 21.6°F-5.8°C 52% 4.3 mph SSE6.9 kmh SSE 5.8 mph9.3 kmh 30.27 in1025.1 mb 0.00 in0.0 mm 0.00 in0.0 mm 0.00 in0.0 mm
02:53 AM 38.3°F3.5°C 22.0°F-5.6°C 52% 3.0 mph SSE4.8 kmh SSE 5.8 mph9.3 kmh 30.27 in1025.1 mb 0.00 in0.0 mm 0.00 in0.0 mm 0.00 in0.0 mm
02:56 AM 97.9°F36.6°C 62.9°F17.2°C 32% 4.1 mph E6.6 kmh E 5.8 mph9.3 kmh 30.03 in1016.9 mb 0.00 in0.0 mm 0.00 in0.0 mm 0.00 in0.0 mm
02:58 AM 38.1°F3.4°C 21.9°F-5.6°C 52% Calm Calm 5.0 mph8.0 kmh 30.27 in1025.1 mb 0.00 in0.0 mm 0.00 in0.0 mm 0.00 in0.0 mm
02:59 AM 98.1°F36.7°C 63.1°F17.3°C 32% 4.0 mph E6.4 kmh E 5.8 mph9.3 kmh 30.03 in1016.9 mb 0.00 in0.0 mm 0.00 in0.0 mm 0.00 in0.0 mm
03:03 AM 38.1°F3.4°C 21.3°F-5.9°C 51% Calm Calm -- 30.30 in1026.1 mb 0.00 in0.0 mm 0.00 in0.0 mm 0.00 in0.0 mm
03:08 AM 38.1°F3.4°C 21.3°F-5.9°C 51% Calm Calm -- 30.30 in1026.1 mb 0.00 in0.0 mm 0.00 in0.0 mm 0.00 in0.0 mm
03:13 AM 38.1°F3.4°C 21.3°F-5.9°C 51% Calm Calm -- 30.30 in1026.1 mb 0.00 in0.0 mm 0.00 in0.0 mm 0.00 in0.0 mm
03:18 AM 37.9°F3.3°C 21.1°F-6.1°C 51% Calm Calm -- 30.30 in1026.1 mb 0.00 in0.0 mm 0.00 in0.0 mm 0.00 in0.0 mm
03:23 AM 37.8°F3.2°C 21.1°F-6.1°C 51% 3.6 mph SSE5.8 kmh SSE 4.4 mph7.1 kmh 30.30 in1026.1 mb 0.00 in0.0 mm 0.00 in0.0 mm 0.00 in0.0 mm
03:29 AM 37.6°F3.1°C 20.9°F-6.2°C 51% Calm Calm 4.4 mph7.1 kmh 30.30 in1026.1 mb 0.00 in0.0 mm 0.00 in0.0 mm 0.00 in0.0 mm
03:34 AM 37.4°F3.0°C 20.7°F-6.3°C 51% Calm Calm 2.2 mph3.5 kmh 30.30 in1026.1 mb 0.00 in0.0 mm 0.00 in0.0 mm 0.00 in0.0 mm
03:39 AM 37.6°F3.1°C 20.9°F-6.2°C 51% 3.2 mph SSE5.1 kmh SSE 4.0 mph6.4 kmh 30.30 in1026.1 mb 0.00 in0.0 mm 0.00 in0.0 mm 0.00 in0.0 mm
03:44 AM 37.6°F3.1°C 20.9°F-6.2°C 51% Calm Calm 4.0 mph6.4 kmh 30.30 in1026.1 mb 0.00 in0.0 mm 0.00 in0.0 mm 0.00 in0.0 mm
03:49 AM 37.6°F3.1°C 20.9°F-6.2°C 51% Calm Calm 2.6 mph4.2 kmh 30.30 in1026.1 mb 0.00 in0.0 mm 0.00 in0.0 mm 0.00 in0.0 mm
03:54 AM 37.4°F3.0°C 20.7°F-6.3°C 51% Calm Calm 1.8 mph2.9 kmh 30.30 in1026.1 mb 0.00 in0.0 mm 0.00 in0.0 mm 0.00 in0.0 mm
03:59 AM 37.4°F3.0°C 20.7°F-6.3°C 51% Calm Calm 1.8 mph2.9 kmh 30.30 in1026.1 mb 0.00 in0.0 mm 0.00 in0.0 mm 0.00 in0.0 mm
04:04 AM 37.4°F3.0°C 20.7°F-6.3°C 51% Calm Calm -- 30.30 in1026.1 mb 0.00 in0.0 mm 0.00 in0.0 mm 0.00 in0.0 mm
04:10 AM 37.4°F3.0°C 20.7°F-6.3°C 51% Calm Calm -- 30.30 in1026.1 mb 0.00 in0.0 mm 0.00 in0.0 mm 0.00 in0.0 mm
04:15 AM 37.0°F2.8°C 20.8°F-6.2°C 52% Calm Calm -- 30.30 in1026.1 mb 0.00 in0.0 mm 0.00 in0.0 mm 0.00 in0.0 mm
04:20 AM 36.9°F2.7°C 20.7°F-6.3°C 52% Calm Calm -- 30.30 in1026.1 mb 0.00 in0.0 mm 0.00 in0.0 mm 0.00 in0.0 mm
04:25 AM 36.7°F2.6°C 20.6°F-6.3°C 52% 2.4 mph ESE3.9 kmh ESE 4.0 mph6.4 kmh 30.30 in1026.1 mb 0.00 in0.0 mm 0.00 in0.0 mm 0.00 in0.0 mm
04:30 AM 36.7°F2.6°C 20.6°F-6.3°C 52% Calm Calm 4.0 mph6.4 kmh 30.30 in1026.1 mb 0.00 in0.0 mm 0.00 in0.0 mm 0.00 in0.0 mm
04:35 AM 36.7°F2.6°C 20.6°F-6.3°C 52% Calm Calm -- 30.27 in1025.1 mb 0.00 in0.0 mm 0.00 in0.0 mm 0.00 in0.0 mm
04:40 AM 36.7°F2.6°C 20.6°F-6.3°C 52% Calm Calm -- 30.27 in1025.1 mb 0.00 in0.0 mm 0.00 in0.0 mm 0.00 in0.0 mm
04:45 AM 36.7°F2.6°C 20.6°F-6.3°C 52% Calm Calm -- 30.27 in1025.1 mb 0.00 in0.0 mm 0.00 in0.0 mm 0.00 in0.0 mm
04:50 AM 36.7°F2.6°C 20.6°F-6.3°C 52% 2.9 mph ESE4.7 kmh ESE 3.2 mph5.1 kmh 30.30 in1026.1 mb 0.00 in0.0 mm 0.00 in0.0 mm 0.00 in0.0 mm
04:55 AM 36.7°F2.6°C 20.6°F-6.3°C 52% 2.1 mph ESE3.4 kmh ESE 3.2 mph5.1 kmh 30.30 in1026.1 mb 0.00 in0.0 mm 0.00 in0.0 mm 0.00 in0.0 mm
05:01 AM 36.7°F2.6°C 20.6°F-6.3°C 52% Calm Calm 3.2 mph5.1 kmh 30.30 in1026.1 mb 0.00 in0.0 mm 0.00 in0.0 mm 0.00 in0.0 mm
05:06 AM 36.5°F2.5°C 20.9°F-6.2°C 53% 2.4 mph ESE3.9 kmh ESE 3.2 mph5.1 kmh 30.33 in1027.1 mb 0.00 in0.0 mm 0.00 in0.0 mm 0.00 in0.0 mm
05:11 AM 36.3°F2.4°C 20.7°F-6.3°C 53% 2.2 mph ESE3.5 kmh ESE 3.2 mph5.1 kmh 30.33 in1027.1 mb 0.00 in0.0 mm 0.00 in0.0 mm 0.00 in0.0 mm
05:16 AM 36.5°F2.5°C 21.4°F-5.9°C 54% Calm Calm 4.0 mph6.4 kmh 30.33 in1027.1 mb 0.00 in0.0 mm 0.00 in0.0 mm 0.00 in0.0 mm
05:21 AM 36.5°F2.5°C 21.4°F-5.9°C 54% 2.0 mph ESE3.2 kmh ESE 4.0 mph6.4 kmh 30.33 in1027.1 mb 0.00 in0.0 mm 0.00 in0.0 mm 0.00 in0.0 mm
05:26 AM 36.3°F2.4°C 21.7°F-5.7°C 55% Calm Calm 4.0 mph6.4 kmh 30.33 in1027.1 mb 0.00 in0.0 mm 0.00 in0.0 mm 0.00 in0.0 mm
05:32 AM 36.1°F2.3°C 21.5°F-5.8°C 55% 3.5 mph ESE5.6 kmh ESE 4.4 mph7.1 kmh 30.33 in1027.1 mb 0.00 in0.0 mm 0.00 in0.0 mm 0.00 in0.0 mm
05:37 AM 36.1°F2.3°C 22.0°F-5.6°C 56% Calm Calm 4.4 mph7.1 kmh 30.33 in1027.1 mb 0.00 in0.0 mm 0.00 in0.0 mm 0.00 in0.0 mm
05:42 AM 36.1°F2.3°C 22.0°F-5.6°C 56% Calm Calm 4.0 mph6.4 kmh 30.33 in1027.1 mb 0.00 in0.0 mm 0.00 in0.0 mm 0.00 in0.0 mm
05:47 AM 36.0°F2.2°C 22.3°F-5.4°C 57% 3.9 mph ESE6.3 kmh ESE 4.4 mph7.1 kmh 30.36 in1028.1 mb 0.00 in0.0 mm 0.00 in0.0 mm 0.00 in0.0 mm
05:53 AM 36.3°F2.4°C 22.6°F-5.2°C 57% 4.0 mph ENE6.4 kmh ENE 5.0 mph8.0 kmh 30.36 in1028.1 mb 0.00 in0.0 mm 0.00 in0.0 mm 0.00 in0.0 mm
05:58 AM 36.5°F2.5°C 22.8°F-5.1°C 57% 4.4 mph NE7.1 kmh NE 5.0 mph8.0 kmh 30.36 in1028.1 mb 0.00 in0.0 mm 0.00 in0.0 mm 0.00 in0.0 mm
06:03 AM 36.9°F2.7°C 23.2°F-4.9°C 57% 4.4 mph NNE7.1 kmh NNE 5.0 mph8.0 kmh 30.36 in1028.1 mb 0.00 in0.0 mm 0.00 in0.0 mm 0.00 in0.0 mm
06:08 AM 36.9°F2.7°C 23.7°F-4.6°C 58% 3.5 mph NNE5.6 kmh NNE 5.0 mph8.0 kmh 30.36 in1028.1 mb 0.00 in0.0 mm 0.00 in0.0 mm 0.00 in0.0 mm
06:13 AM 36.7°F2.6°C 23.9°F-4.5°C 59% Calm Calm 4.4 mph7.1 kmh 30.36 in1028.1 mb 0.00 in0.0 mm 0.00 in0.0 mm 0.00 in0.0 mm
06:18 AM 36.7°F2.6°C 23.5°F-4.7°C 58% Calm Calm 3.2 mph5.1 kmh 30.36 in1028.1 mb 0.00 in0.0 mm 0.00 in0.0 mm 0.00 in0.0 mm
06:23 AM 36.7°F2.6°C 23.9°F-4.5°C 59% Calm Calm -- 30.36 in1028.1 mb 0.00 in0.0 mm 0.00 in0.0 mm 0.00 in0.0 mm
06:28 AM 36.3°F2.4°C 23.5°F-4.7°C 59% Calm Calm -- 30.36 in1028.1 mb 0.00 in0.0 mm 0.00 in0.0 mm 0.00 in0.0 mm
06:33 AM 36.1°F2.3°C 23.4°F-4.8°C 59% 2.8 mph NNE4.5 kmh NNE 3.2 mph5.1 kmh 30.36 in1028.1 mb 0.00 in0.0 mm 0.00 in0.0 mm 0.00 in0.0 mm
06:38 AM 35.8°F2.1°C 23.1°F-4.9°C 59% Calm Calm 3.2 mph5.1 kmh 30.36 in1028.1 mb 0.00 in0.0 mm 0.00 in0.0 mm 0.00 in0.0 mm
06:43 AM 35.6°F2.0°C 22.9°F-5.1°C 59% Calm Calm 2.6 mph4.2 kmh 30.36 in1028.1 mb 0.00 in0.0 mm 0.00 in0.0 mm 0.00 in0.0 mm
06:48 AM 35.4°F1.9°C 23.1°F-4.9°C 61% Calm Calm -- 30.39 in1029.1 mb 0.00 in0.0 mm 0.00 in0.0 mm 0.00 in0.0 mm
06:53 AM 35.1°F1.7°C 23.3°F-4.8°C 62% Calm Calm -- 30.39 in1029.1 mb 0.00 in0.0 mm 0.00 in0.0 mm 0.00 in0.0 mm
06:58 AM 34.7°F1.5°C 23.3°F-4.8°C 63% Calm Calm -- 30.39 in1029.1 mb 0.00 in0.0 mm 0.00 in0.0 mm 0.00 in0.0 mm
07:03 AM 34.5°F1.4°C 23.6°F-4.7°C 64% Calm Calm -- 30.39 in1029.1 mb 0.00 in0.0 mm 0.00 in0.0 mm 0.00 in0.0 mm
07:08 AM 34.3°F1.3°C 23.8°F-4.6°C 65% Calm Calm -- 30.39 in1029.1 mb 0.00 in0.0 mm 0.00 in0.0 mm 0.00 in0.0 mm
07:13 AM 34.3°F1.3°C 23.4°F-4.8°C 64% Calm Calm -- 30.39 in1029.1 mb 0.00 in0.0 mm 0.00 in0.0 mm 0.00 in0.0 mm
07:18 AM 34.3°F1.3°C 23.4°F-4.8°C 64% Calm Calm -- 30.39 in1029.1 mb 0.00 in0.0 mm 0.00 in0.0 mm 0.00 in0.0 mm
07:23 AM 34.9°F1.6°C 24.8°F-4.0°C 66% Calm Calm -- 30.39 in1029.1 mb 0.00 in0.0 mm 0.00 in0.0 mm 0.00 in0.0 mm
07:28 AM 34.9°F1.6°C 25.2°F-3.8°C 67% Calm Calm -- 30.39 in1029.1 mb 0.00 in0.0 mm 0.00 in0.0 mm 0.00 in0.0 mm
07:34 AM 35.1°F1.7°C 25.4°F-3.7°C 67% Calm Calm -- 30.39 in1029.1 mb 0.00 in0.0 mm 0.00 in0.0 mm 0.00 in0.0 mm
07:38 AM 35.6°F2.0°C 25.8°F-3.4°C 67% Calm Calm -- 30.39 in1029.1 mb 0.00 in0.0 mm 0.00 in0.0 mm 0.00 in0.0 mm
07:44 AM 36.1°F2.3°C 26.7°F-2.9°C 68% Calm Calm -- 30.39 in1029.1 mb 0.00 in0.0 mm 0.00 in0.0 mm 0.00 in0.0 mm
07:49 AM 37.0°F2.8°C 28.0°F-2.2°C 69% Calm Calm -- 30.39 in1029.1 mb 0.00 in0.0 mm 0.00 in0.0 mm 0.00 in0.0 mm
07:56 AM 37.9°F3.3°C 28.4°F-2.0°C 68% Calm Calm -- 30.39 in1029.1 mb 0.00 in0.0 mm 0.00 in0.0 mm 0.00 in0.0 mm
08:01 AM 38.8°F3.8°C 28.9°F-1.7°C 67% Calm Calm -- 30.39 in1029.1 mb 0.00 in0.0 mm 0.00 in0.0 mm 0.00 in0.0 mm
08:06 AM 39.9°F4.4°C 28.7°F-1.8°C 64% Calm Calm -- 30.39 in1029.1 mb 0.00 in0.0 mm 0.00 in0.0 mm 0.00 in0.0 mm
08:11 AM 40.6°F4.8°C 28.9°F-1.7°C 63% Calm Calm -- 30.39 in1029.1 mb 0.00 in0.0 mm 0.00 in0.0 mm 0.00 in0.0 mm
08:17 AM 41.7°F5.4°C 29.1°F-1.6°C 61% 2.2 mph NNE3.5 kmh NNE 3.2 mph5.1 kmh 30.39 in1029.1 mb 0.00 in0.0 mm 0.00 in0.0 mm 0.00 in0.0 mm
08:22 AM 43.0°F6.1°C 29.9°F-1.2°C 59% 2.6 mph NNE4.2 kmh NNE 4.0 mph6.4 kmh 30.39 in1029.1 mb 0.00 in0.0 mm 0.00 in0.0 mm 0.00 in0.0 mm
08:27 AM 44.2°F6.8°C 30.5°F-0.8°C 58% 2.6 mph NNE4.2 kmh NNE 5.4 mph8.7 kmh 30.39 in1029.1 mb 0.00 in0.0 mm 0.00 in0.0 mm 0.00 in0.0 mm
08:32 AM 44.4°F6.9°C 29.8°F-1.2°C 56% 3.4 mph NNE5.5 kmh NNE 5.4 mph8.7 kmh 30.39 in1029.1 mb 0.00 in0.0 mm 0.00 in0.0 mm 0.00 in0.0 mm
08:37 AM 44.8°F7.1°C 29.6°F-1.3°C 55% Calm Calm 5.4 mph8.7 kmh 30.39 in1029.1 mb 0.00 in0.0 mm 0.00 in0.0 mm 0.00 in0.0 mm
08:42 AM 45.5°F7.5°C 29.8°F-1.2°C 54% 2.5 mph SSE4.0 kmh SSE 4.4 mph7.1 kmh 30.39 in1029.1 mb 0.00 in0.0 mm 0.00 in0.0 mm 0.00 in0.0 mm
08:47 AM 46.4°F8.0°C 30.6°F-0.8°C 54% 2.5 mph ESE4.0 kmh ESE 4.4 mph7.1 kmh 30.42 in1030.1 mb 0.00 in0.0 mm 0.00 in0.0 mm 0.00 in0.0 mm
08:52 AM 46.9°F8.3°C 30.6°F-0.8°C 53% 3.2 mph E5.1 kmh E 5.4 mph8.7 kmh 30.42 in1030.1 mb 0.00 in0.0 mm 0.00 in0.0 mm 0.00 in0.0 mm
08:57 AM 47.3°F8.5°C 30.9°F-0.6°C 53% 2.3 mph E3.7 kmh E 5.4 mph8.7 kmh 30.42 in1030.1 mb 0.00 in0.0 mm 0.00 in0.0 mm 0.00 in0.0 mm
09:02 AM 47.7°F8.7°C 31.3°F-0.4°C 53% 2.7 mph E4.3 kmh E 4.0 mph6.4 kmh 30.42 in1030.1 mb 0.00 in0.0 mm 0.00 in0.0 mm 0.00 in0.0 mm
09:07 AM 47.8°F8.8°C 30.9°F-0.6°C 52% 4.5 mph NE7.2 kmh NE 5.8 mph9.3 kmh 30.42 in1030.1 mb 0.00 in0.0 mm 0.00 in0.0 mm 0.00 in0.0 mm
09:12 AM 48.2°F9.0°C 31.2°F-0.4°C 52% 3.5 mph E5.6 kmh E 5.8 mph9.3 kmh 30.42 in1030.1 mb 0.00 in0.0 mm 0.00 in0.0 mm 0.00 in0.0 mm
09:17 AM 48.9°F9.4°C 31.3°F-0.4°C 51% 3.9 mph E6.3 kmh E 5.8 mph9.3 kmh 30.42 in1030.1 mb 0.00 in0.0 mm 0.00 in0.0 mm 0.00 in0.0 mm
09:22 AM 49.5°F9.7°C 31.9°F-0.1°C 51% 3.7 mph E6.0 kmh E 5.8 mph9.3 kmh 30.42 in1030.1 mb 0.00 in0.0 mm 0.00 in0.0 mm 0.00 in0.0 mm
09:27 AM 50.0°F10.0°C 32.4°F0.2°C 51% 3.7 mph E6.0 kmh E 6.8 mph10.9 kmh 30.42 in1030.1 mb 0.00 in0.0 mm 0.00 in0.0 mm 0.00 in0.0 mm
09:32 AM 51.1°F10.6°C 33.4°F0.8°C 51% 3.3 mph E5.3 kmh E 6.8 mph10.9 kmh 30.42 in1030.1 mb 0.00 in0.0 mm 0.00 in0.0 mm 0.00 in0.0 mm
09:37 AM 52.5°F11.4°C 34.7°F1.5°C 51% 3.2 mph E5.1 kmh E 4.4 mph7.1 kmh 30.42 in1030.1 mb 0.00 in0.0 mm 0.00 in0.0 mm 0.00 in0.0 mm
09:42 AM 54.5°F12.5°C 36.0°F2.2°C 50% 3.4 mph SE5.5 kmh SE 5.8 mph9.3 kmh 30.42 in1030.1 mb 0.00 in0.0 mm 0.00 in0.0 mm 0.00 in0.0 mm
09:48 AM 55.2°F12.9°C 36.0°F2.2°C 48% 5.4 mph SW8.7 kmh SW 7.2 mph11.6 kmh 30.42 in1030.1 mb 0.00 in0.0 mm 0.00 in0.0 mm 0.00 in0.0 mm
09:53 AM 56.3°F13.5°C 35.8°F2.1°C 46% 3.0 mph S4.8 kmh S 7.2 mph11.6 kmh 30.42 in1030.1 mb 0.00 in0.0 mm 0.00 in0.0 mm 0.00 in0.0 mm
09:59 AM 57.6°F14.2°C 36.4°F2.4°C 45% 4.0 mph S6.4 kmh S 8.0 mph12.9 kmh 30.42 in1030.1 mb 0.00 in0.0 mm 0.00 in0.0 mm 0.00 in0.0 mm
10:04 AM 57.6°F14.2°C 35.7°F2.1°C 44% 7.8 mph S12.6 kmh S 11.2 mph18.0 kmh 30.42 in1030.1 mb 0.00 in0.0 mm 0.00 in0.0 mm 0.00 in0.0 mm
10:10 AM 57.6°F14.2°C 35.7°F2.1°C 44% 6.1 mph S9.8 kmh S 11.2 mph18.0 kmh 30.42 in1030.1 mb 0.00 in0.0 mm 0.00 in0.0 mm 0.00 in0.0 mm
10:15 AM 57.4°F14.1°C 35.6°F2.0°C 44% 5.2 mph SW8.4 kmh SW 9.8 mph15.8 kmh 30.42 in1030.1 mb 0.00 in0.0 mm 0.00 in0.0 mm 0.00 in0.0 mm
10:20 AM 56.8°F13.8°C 35.0°F1.7°C 44% 5.9 mph S9.5 kmh S 12.6 mph20.3 kmh 30.42 in1030.1 mb 0.00 in0.0 mm 0.00 in0.0 mm 0.00 in0.0 mm
10:25 AM 57.2°F14.0°C 35.4°F1.9°C 44% 4.1 mph S6.6 kmh S 12.6 mph20.3 kmh 30.42 in1030.1 mb 0.00 in0.0 mm 0.00 in0.0 mm 0.00 in0.0 mm
10:30 AM 58.5°F14.7°C 36.6°F2.6°C 44% 5.2 mph S8.4 kmh S 8.6 mph13.8 kmh 30.42 in1030.1 mb 0.00 in0.0 mm 0.00 in0.0 mm 0.00 in0.0 mm
10:35 AM 58.6°F14.8°C 36.0°F2.2°C 43% 6.0 mph SE9.7 kmh SE 8.6 mph13.8 kmh 30.45 in1031.2 mb 0.00 in0.0 mm 0.00 in0.0 mm 0.00 in0.0 mm
10:40 AM 58.5°F14.7°C 35.9°F2.2°C 43% 6.9 mph S11.1 kmh S 11.6 mph18.7 kmh 30.45 in1031.2 mb 0.00 in0.0 mm 0.00 in0.0 mm 0.00 in0.0 mm
10:45 AM 57.6°F14.2°C 35.1°F1.7°C 43% 7.3 mph S11.7 kmh S 13.0 mph20.9 kmh 30.45 in1031.2 mb 0.00 in0.0 mm 0.00 in0.0 mm 0.00 in0.0 mm
10:50 AM 57.9°F14.4°C 34.7°F1.5°C 42% 6.5 mph SSW10.5 kmh SSW 13.0 mph20.9 kmh 30.42 in1030.1 mb 0.00 in0.0 mm 0.00 in0.0 mm 0.00 in0.0 mm
10:55 AM 58.5°F14.7°C 35.9°F2.2°C 43% 6.0 mph SSW9.7 kmh SSW 11.2 mph18.0 kmh 30.42 in1030.1 mb 0.00 in0.0 mm 0.00 in0.0 mm 0.00 in0.0 mm
11:00 AM 58.6°F14.8°C 35.3°F1.8°C 42% 7.6 mph S12.2 kmh S 13.0 mph20.9 kmh 30.42 in1030.1 mb 0.00 in0.0 mm 0.00 in0.0 mm 0.00 in0.0 mm
11:05 AM 59.0°F15.0°C 35.7°F2.1°C 42% 8.1 mph S13.0 kmh S 13.0 mph20.9 kmh 30.42 in1030.1 mb 0.00 in0.0 mm 0.00 in0.0 mm 0.00 in0.0 mm
11:10 AM 59.9°F15.5°C 35.8°F2.1°C 41% 10.9 mph SSE17.5 kmh SSE 13.0 mph20.9 kmh 30.42 in1030.1 mb 0.00 in0.0 mm 0.00 in0.0 mm 0.00 in0.0 mm
11:15 AM 60.6°F15.9°C 36.4°F2.4°C 41% 11.3 mph SE18.2 kmh SE 14.4 mph23.2 kmh 30.42 in1030.1 mb 0.00 in0.0 mm 0.00 in0.0 mm 0.00 in0.0 mm
11:20 AM 98.1°F36.7°C 63.1°F17.3°C 32% 5.0 mph NW8.0 kmh NW 5.8 mph9.3 kmh 30.00 in1015.9 mb 0.00 in0.0 mm 0.00 in0.0 mm 0.00 in0.0 mm
11:25 AM 61.0°F16.1°C 35.4°F1.9°C 39% 7.9 mph S12.7 kmh S 17.4 mph28.0 kmh 30.42 in1030.1 mb 0.00 in0.0 mm 0.00 in0.0 mm 0.00 in0.0 mm
11:31 AM 60.8°F16.0°C 35.2°F1.8°C 39% 6.6 mph S10.6 kmh S 19.6 mph31.5 kmh 30.42 in1030.1 mb 0.00 in0.0 mm 0.00 in0.0 mm 0.00 in0.0 mm
11:36 AM 61.0°F16.1°C 34.6°F1.4°C 37% 6.1 mph SSW9.8 kmh SSW 19.6 mph31.5 kmh 30.42 in1030.1 mb 0.00 in0.0 mm 0.00 in0.0 mm 0.00 in0.0 mm
11:41 AM 62.1°F16.7°C 36.3°F2.4°C 39% 6.0 mph SSW9.7 kmh SSW 8.6 mph13.8 kmh 30.42 in1030.1 mb 0.00 in0.0 mm 0.00 in0.0 mm 0.00 in0.0 mm
11:46 AM 62.6°F17.0°C 36.8°F2.7°C 39% 6.1 mph SSE9.8 kmh SSE 8.0 mph12.9 kmh 30.39 in1029.1 mb 0.00 in0.0 mm 0.00 in0.0 mm 0.00 in0.0 mm
11:47 AM 97.7°F36.5°C 62.7°F17.1°C 32% 4.1 mph NNW6.6 kmh NNW 5.8 mph9.3 kmh 30.00 in1015.9 mb 0.00 in0.0 mm 0.00 in0.0 mm 0.00 in0.0 mm
11:48 AM 78.1°F25.6°C 69.2°F20.7°C 74% Calm Calm -- 29.94 in1013.9 mb 0.00 in0.0 mm 0.00 in0.0 mm 0.00 in0.0 mm
11:51 AM 62.6°F17.0°C 36.0°F2.2°C 37% 5.0 mph SSE8.0 kmh SSE 12.0 mph19.3 kmh 30.39 in1029.1 mb 0.00 in0.0 mm 0.00 in0.0 mm 0.00 in0.0 mm
11:56 AM 62.8°F17.1°C 36.2°F2.3°C 37% 4.8 mph S7.7 kmh S 12.0 mph19.3 kmh 30.39 in1029.1 mb 0.00 in0.0 mm 0.00 in0.0 mm 0.00 in0.0 mm
11:58 AM 97.9°F36.6°C 62.9°F17.2°C 32% 4.1 mph NNW6.6 kmh NNW 5.8 mph9.3 kmh 30.00 in1015.9 mb 0.00 in0.0 mm 0.00 in0.0 mm 0.00 in0.0 mm
12:04 PM 63.1°F17.3°C 36.5°F2.5°C 37% 5.9 mph SW9.5 kmh SW 9.4 mph15.1 kmh 30.39 in1029.1 mb 0.00 in0.0 mm 0.00 in0.0 mm 0.00 in0.0 mm
12:09 PM 63.5°F17.5°C 36.1°F2.3°C 36% 7.8 mph S12.6 kmh S 11.2 mph18.0 kmh 30.39 in1029.1 mb 0.00 in0.0 mm 0.00 in0.0 mm 0.00 in0.0 mm
12:14 PM 63.1°F17.3°C 35.7°F2.1°C 36% 6.3 mph S10.1 kmh S 11.2 mph18.0 kmh 30.39 in1029.1 mb 0.00 in0.0 mm 0.00 in0.0 mm 0.00 in0.0 mm
12:19 PM 63.1°F17.3°C 35.7°F2.1°C 36% 5.1 mph S8.2 kmh S 9.8 mph15.8 kmh 30.39 in1029.1 mb 0.00 in0.0 mm 0.00 in0.0 mm 0.00 in0.0 mm
12:24 PM 63.5°F17.5°C 36.1°F2.3°C 36% 6.8 mph S10.9 kmh S 10.8 mph17.4 kmh 30.39 in1029.1 mb 0.00 in0.0 mm 0.00 in0.0 mm 0.00 in0.0 mm
12:29 PM 64.0°F17.8°C 36.5°F2.5°C 36% 8.0 mph S12.9 kmh S 13.0 mph20.9 kmh 30.39 in1029.1 mb 0.00 in0.0 mm 0.00 in0.0 mm 0.00 in0.0 mm
12:34 PM 63.5°F17.5°C 36.1°F2.3°C 36% 5.3 mph SW8.5 kmh SW 13.0 mph20.9 kmh 30.39 in1029.1 mb 0.00 in0.0 mm 0.00 in0.0 mm 0.00 in0.0 mm
12:39 PM 63.3°F17.4°C 35.1°F1.7°C 35% 8.0 mph S12.9 kmh S 12.0 mph19.3 kmh 30.39 in1029.1 mb 0.00 in0.0 mm 0.00 in0.0 mm 0.00 in0.0 mm
12:44 PM 63.0°F17.2°C 35.6°F2.0°C 36% 6.8 mph S10.9 kmh S 13.8 mph22.2 kmh 30.39 in1029.1 mb 0.00 in0.0 mm 0.00 in0.0 mm 0.00 in0.0 mm
12:49 PM 62.8°F17.1°C 34.7°F1.5°C 35% 6.6 mph S10.6 kmh S 13.8 mph22.2 kmh 30.39 in1029.1 mb 0.00 in0.0 mm 0.00 in0.0 mm 0.00 in0.0 mm
12:55 PM 62.2°F16.8°C 34.9°F1.6°C 36% 5.2 mph SSW8.4 kmh SSW 13.0 mph20.9 kmh 30.39 in1029.1 mb 0.00 in0.0 mm 0.00 in0.0 mm 0.00 in0.0 mm
01:00 PM 63.3°F17.4°C 35.9°F2.2°C 36% 4.0 mph SW6.4 kmh SW 13.0 mph20.9 kmh 30.39 in1029.1 mb 0.00 in0.0 mm 0.00 in0.0 mm 0.00 in0.0 mm
01:05 PM 63.3°F17.4°C 35.9°F2.2°C 36% 5.5 mph SSW8.9 kmh SSW 8.6 mph13.8 kmh 30.39 in1029.1 mb 0.00 in0.0 mm 0.00 in0.0 mm 0.00 in0.0 mm
01:10 PM 63.9°F17.7°C 36.4°F2.4°C 36% 6.6 mph SSE10.6 kmh SSE 8.6 mph13.8 kmh 30.39 in1029.1 mb 0.00 in0.0 mm 0.00 in0.0 mm 0.00 in0.0 mm
01:16 PM 64.2°F17.9°C 36.7°F2.6°C 36% 8.9 mph SE14.3 kmh SE 11.2 mph18.0 kmh 30.39 in1029.1 mb 0.00 in0.0 mm 0.00 in0.0 mm 0.00 in0.0 mm
01:21 PM 64.0°F17.8°C 36.5°F2.5°C 36% 4.8 mph SSE7.7 kmh SSE 11.2 mph18.0 kmh 30.39 in1029.1 mb 0.00 in0.0 mm 0.00 in0.0 mm 0.00 in0.0 mm
01:26 PM 63.9°F17.7°C 37.2°F2.9°C 37% 3.5 mph SSE5.6 kmh SSE 7.6 mph12.2 kmh 30.39 in1029.1 mb 0.00 in0.0 mm 0.00 in0.0 mm 0.00 in0.0 mm
01:31 PM 63.5°F17.5°C 36.8°F2.7°C 37% 3.7 mph SSW6.0 kmh SSW 6.8 mph10.9 kmh 30.39 in1029.1 mb 0.00 in0.0 mm 0.00 in0.0 mm 0.00 in0.0 mm
01:36 PM 64.4°F18.0°C 37.7°F3.2°C 37% 5.6 mph SE9.0 kmh SE 7.2 mph11.6 kmh 30.39 in1029.1 mb 0.00 in0.0 mm 0.00 in0.0 mm 0.00 in0.0 mm
01:41 PM 65.1°F18.4°C 37.5°F3.1°C 36% 6.2 mph S10.0 kmh S 7.6 mph12.2 kmh 30.39 in1029.1 mb 0.00 in0.0 mm 0.00 in0.0 mm 0.00 in0.0 mm
01:46 PM 64.6°F18.1°C 37.1°F2.8°C 36% 7.2 mph S11.6 kmh S 10.8 mph17.4 kmh 30.36 in1028.1 mb 0.00 in0.0 mm 0.00 in0.0 mm 0.00 in0.0 mm
01:51 PM 63.9°F17.7°C 37.2°F2.9°C 37% 5.1 mph S8.2 kmh S 10.8 mph17.4 kmh 30.36 in1028.1 mb 0.00 in0.0 mm 0.00 in0.0 mm 0.00 in0.0 mm
01:57 PM 63.5°F17.5°C 36.8°F2.7°C 37% 5.9 mph SSW9.5 kmh SSW 9.8 mph15.8 kmh 30.36 in1028.1 mb 0.00 in0.0 mm 0.00 in0.0 mm 0.00 in0.0 mm
02:02 PM 63.0°F17.2°C 36.4°F2.4°C 37% 4.1 mph S6.6 kmh S 13.0 mph20.9 kmh 30.36 in1028.1 mb 0.00 in0.0 mm 0.00 in0.0 mm 0.00 in0.0 mm
02:08 PM 62.8°F17.1°C 36.2°F2.3°C 37% 6.6 mph S10.6 kmh S 8.6 mph13.8 kmh 30.36 in1028.1 mb 0.00 in0.0 mm 0.00 in0.0 mm 0.00 in0.0 mm
02:13 PM 62.4°F16.9°C 35.9°F2.2°C 37% 6.3 mph S10.1 kmh S 12.6 mph20.3 kmh 30.36 in1028.1 mb 0.00 in0.0 mm 0.00 in0.0 mm 0.00 in0.0 mm
02:18 PM 62.2°F16.8°C 36.4°F2.4°C 39% 4.5 mph S7.2 kmh S 12.6 mph20.3 kmh 30.36 in1028.1 mb 0.00 in0.0 mm 0.00 in0.0 mm 0.00 in0.0 mm
02:23 PM 62.2°F16.8°C 36.4°F2.4°C 39% 5.3 mph S8.5 kmh S 10.8 mph17.4 kmh 30.36 in1028.1 mb 0.00 in0.0 mm 0.00 in0.0 mm 0.00 in0.0 mm
02:28 PM 98.2°F36.8°C 63.1°F17.3°C 32% 3.2 mph 5.1 kmh 5.8 mph9.3 kmh 30.00 in1015.9 mb 0.00 in0.0 mm 0.00 in0.0 mm 0.00 in0.0 mm
02:29 PM 62.2°F16.8°C 36.4°F2.4°C 39% 4.5 mph SE7.2 kmh SE 10.8 mph17.4 kmh 30.36 in1028.1 mb 0.00 in0.0 mm 0.00 in0.0 mm 0.00 in0.0 mm
02:34 PM 62.2°F16.8°C 36.4°F2.4°C 39% 6.5 mph SE10.5 kmh SE 8.0 mph12.9 kmh 30.36 in1028.1 mb 0.00 in0.0 mm 0.00 in0.0 mm 0.00 in0.0 mm
02:40 PM 62.6°F17.0°C 36.0°F2.2°C 37% 4.2 mph S6.8 kmh S 8.0 mph12.9 kmh 30.36 in1028.1 mb 0.00 in0.0 mm 0.00 in0.0 mm 0.00 in0.0 mm
02:45 PM 62.2°F16.8°C 36.4°F2.4°C 39% 4.9 mph S7.9 kmh S 7.6 mph12.2 kmh 30.36 in1028.1 mb 0.00 in0.0 mm 0.00 in0.0 mm 0.00 in0.0 mm
02:50 PM 62.1°F16.7°C 36.3°F2.4°C 39% 6.3 mph SSE10.1 kmh SSE 11.6 mph18.7 kmh 30.39 in1029.1 mb 0.00 in0.0 mm 0.00 in0.0 mm 0.00 in0.0 mm
02:55 PM 62.1°F16.7°C 36.3°F2.4°C 39% 6.2 mph S10.0 kmh S 11.6 mph18.7 kmh 30.39 in1029.1 mb 0.00 in0.0 mm 0.00 in0.0 mm 0.00 in0.0 mm
02:56 PM 98.6°F37.0°C 63.5°F17.5°C 32% 2.2 mph SE3.5 kmh SE 5.8 mph9.3 kmh 30.00 in1015.9 mb 0.00 in0.0 mm 0.00 in0.0 mm 0.00 in0.0 mm
03:01 PM 62.1°F16.7°C 35.6°F2.0°C 37% 6.4 mph S10.3 kmh S 13.0 mph20.9 kmh 30.36 in1028.1 mb 0.00 in0.0 mm 0.00 in0.0 mm 0.00 in0.0 mm
03:06 PM 61.9°F16.6°C 35.4°F1.9°C 37% 5.4 mph SSE8.7 kmh SSE 13.0 mph20.9 kmh 30.36 in1028.1 mb 0.00 in0.0 mm 0.00 in0.0 mm 0.00 in0.0 mm
03:11 PM 61.7°F16.5°C 35.2°F1.8°C 37% 5.1 mph SSW8.2 kmh SSW 9.8 mph15.8 kmh 30.36 in1028.1 mb 0.00 in0.0 mm 0.00 in0.0 mm 0.00 in0.0 mm
03:16 PM 61.9°F16.6°C 35.4°F1.9°C 37% 5.4 mph S8.7 kmh S 8.6 mph13.8 kmh 30.33 in1027.1 mb 0.00 in0.0 mm 0.00 in0.0 mm 0.00 in0.0 mm
03:22 PM 61.9°F16.6°C 35.4°F1.9°C 37% 8.0 mph SSW12.9 kmh SSW 11.2 mph18.0 kmh 30.33 in1027.1 mb 0.00 in0.0 mm 0.00 in0.0 mm 0.00 in0.0 mm
03:27 PM 61.7°F16.5°C 35.2°F1.8°C 37% 6.6 mph SW10.6 kmh SW 13.0 mph20.9 kmh 30.33 in1027.1 mb 0.00 in0.0 mm 0.00 in0.0 mm 0.00 in0.0 mm
03:32 PM 61.3°F16.3°C 34.9°F1.6°C 37% 5.7 mph S9.2 kmh S 13.0 mph20.9 kmh 30.33 in1027.1 mb 0.00 in0.0 mm 0.00 in0.0 mm 0.00 in0.0 mm
03:37 PM 61.3°F16.3°C 34.9°F1.6°C 37% 6.4 mph S10.3 kmh S 8.6 mph13.8 kmh 30.33 in1027.1 mb 0.00 in0.0 mm 0.00 in0.0 mm 0.00 in0.0 mm
03:42 PM 61.2°F16.2°C 34.8°F1.6°C 37% 7.5 mph S12.1 kmh S 11.2 mph18.0 kmh 30.33 in1027.1 mb 0.00 in0.0 mm 0.00 in0.0 mm 0.00 in0.0 mm
03:47 PM 61.0°F16.1°C 34.6°F1.4°C 37% 7.3 mph S11.7 kmh S 12.0 mph19.3 kmh 30.33 in1027.1 mb 0.00 in0.0 mm 0.00 in0.0 mm 0.00 in0.0 mm
03:53 PM 60.8°F16.0°C 34.4°F1.3°C 37% 6.6 mph S10.6 kmh S 12.0 mph19.3 kmh 30.33 in1027.1 mb 0.00 in0.0 mm 0.00 in0.0 mm 0.00 in0.0 mm
03:58 PM 60.8°F16.0°C 34.4°F1.3°C 37% 7.6 mph S12.2 kmh S 12.0 mph19.3 kmh 30.33 in1027.1 mb 0.00 in0.0 mm 0.00 in0.0 mm 0.00 in0.0 mm
04:04 PM 60.4°F15.8°C 34.8°F1.6°C 39% 6.0 mph S9.7 kmh S 11.2 mph18.0 kmh 30.30 in1026.1 mb 0.00 in0.0 mm 0.00 in0.0 mm 0.00 in0.0 mm
04:09 PM 60.6°F15.9°C 34.3°F1.3°C 37% 6.2 mph S10.0 kmh S 9.8 mph15.8 kmh 30.30 in1026.1 mb 0.00 in0.0 mm 0.00 in0.0 mm 0.00 in0.0 mm
04:14 PM 60.4°F15.8°C 34.1°F1.2°C 37% 9.1 mph S14.6 kmh S 12.6 mph20.3 kmh 30.30 in1026.1 mb 0.00 in0.0 mm 0.00 in0.0 mm 0.00 in0.0 mm
04:19 PM 60.4°F15.8°C 34.1°F1.2°C 37% 4.1 mph S6.6 kmh S 12.6 mph20.3 kmh 30.30 in1026.1 mb 0.00 in0.0 mm 0.00 in0.0 mm 0.00 in0.0 mm
04:26 PM 60.3°F15.7°C 34.0°F1.1°C 37% 7.2 mph S11.6 kmh S 10.8 mph17.4 kmh 30.30 in1026.1 mb 0.00 in0.0 mm 0.00 in0.0 mm 0.00 in0.0 mm
04:31 PM 60.1°F15.6°C 33.8°F1.0°C 37% 9.5 mph SSE15.3 kmh SSE 15.6 mph25.1 kmh 30.30 in1026.1 mb 0.00 in0.0 mm 0.00 in0.0 mm 0.00 in0.0 mm
04:36 PM 60.1°F15.6°C 33.8°F1.0°C 37% 4.7 mph S7.6 kmh S 15.6 mph25.1 kmh 30.30 in1026.1 mb 0.00 in0.0 mm 0.00 in0.0 mm 0.00 in0.0 mm
04:41 PM 59.9°F15.5°C 33.6°F0.9°C 37% 5.1 mph SE8.2 kmh SE 8.6 mph13.8 kmh 30.30 in1026.1 mb 0.00 in0.0 mm 0.00 in0.0 mm 0.00 in0.0 mm
04:47 PM 59.7°F15.4°C 33.5°F0.8°C 37% 4.1 mph S6.6 kmh S 11.6 mph18.7 kmh 30.30 in1026.1 mb 0.00 in0.0 mm 0.00 in0.0 mm 0.00 in0.0 mm
04:52 PM 59.7°F15.4°C 33.5°F0.8°C 37% 6.0 mph SSE9.7 kmh SSE 11.6 mph18.7 kmh 30.30 in1026.1 mb 0.00 in0.0 mm 0.00 in0.0 mm 0.00 in0.0 mm
04:57 PM 59.7°F15.4°C 33.5°F0.8°C 37% 7.0 mph SSE11.3 kmh SSE 10.8 mph17.4 kmh 30.30 in1026.1 mb 0.00 in0.0 mm 0.00 in0.0 mm 0.00 in0.0 mm
05:02 PM 59.5°F15.3°C 33.3°F0.7°C 37% 7.1 mph SE11.4 kmh SE 10.8 mph17.4 kmh 30.30 in1026.1 mb 0.00 in0.0 mm 0.00 in0.0 mm 0.00 in0.0 mm
05:07 PM 59.4°F15.2°C 33.2°F0.7°C 37% 4.6 mph S7.4 kmh S 8.0 mph12.9 kmh 30.30 in1026.1 mb 0.00 in0.0 mm 0.00 in0.0 mm 0.00 in0.0 mm
05:12 PM 59.2°F15.1°C 33.0°F0.6°C 37% 4.7 mph SSE7.6 kmh SSE 7.6 mph12.2 kmh 30.30 in1026.1 mb 0.00 in0.0 mm 0.00 in0.0 mm 0.00 in0.0 mm
05:17 PM 59.0°F15.0°C 32.8°F0.4°C 37% 3.5 mph SSW5.6 kmh SSW 7.6 mph12.2 kmh 30.27 in1025.1 mb 0.00 in0.0 mm 0.00 in0.0 mm 0.00 in0.0 mm
05:22 PM 59.0°F15.0°C 32.8°F0.4°C 37% 3.7 mph SSE6.0 kmh SSE 8.6 mph13.8 kmh 30.27 in1025.1 mb 0.00 in0.0 mm 0.00 in0.0 mm 0.00 in0.0 mm
05:27 PM 58.8°F14.9°C 33.4°F0.8°C 39% 3.4 mph SSE5.5 kmh SSE 8.6 mph13.8 kmh 30.27 in1025.1 mb 0.00 in0.0 mm 0.00 in0.0 mm 0.00 in0.0 mm
05:32 PM 58.6°F14.8°C 33.2°F0.7°C 39% 4.2 mph SSE6.8 kmh SSE 6.2 mph10.0 kmh 30.30 in1026.1 mb 0.00 in0.0 mm 0.00 in0.0 mm 0.00 in0.0 mm
05:37 PM 58.5°F14.7°C 33.1°F0.6°C 39% 3.9 mph SSE6.3 kmh SSE 7.2 mph11.6 kmh 30.30 in1026.1 mb 0.00 in0.0 mm 0.00 in0.0 mm 0.00 in0.0 mm
05:43 PM 58.3°F14.6°C 32.9°F0.5°C 39% Calm Calm 7.2 mph11.6 kmh 30.30 in1026.1 mb 0.00 in0.0 mm 0.00 in0.0 mm 0.00 in0.0 mm
05:47 PM 58.1°F14.5°C 32.8°F0.4°C 39% 3.4 mph SSE5.5 kmh SSE 5.0 mph8.0 kmh 30.30 in1026.1 mb 0.00 in0.0 mm 0.00 in0.0 mm 0.00 in0.0 mm
05:53 PM 57.9°F14.4°C 32.6°F0.3°C 39% 2.3 mph SSE3.7 kmh SSE 5.0 mph8.0 kmh 30.30 in1026.1 mb 0.00 in0.0 mm 0.00 in0.0 mm 0.00 in0.0 mm
05:58 PM 57.6°F14.2°C 32.3°F0.2°C 39% 2.8 mph SSE4.5 kmh SSE 5.0 mph8.0 kmh 30.30 in1026.1 mb 0.00 in0.0 mm 0.00 in0.0 mm 0.00 in0.0 mm
06:02 PM 57.4°F14.1°C 32.1°F0.1°C 39% 2.2 mph SSE3.5 kmh SSE 3.2 mph5.1 kmh 30.27 in1025.1 mb 0.00 in0.0 mm 0.00 in0.0 mm 0.00 in0.0 mm
06:07 PM 57.0°F13.9°C 31.8°F-0.1°C 39% Calm Calm 3.2 mph5.1 kmh 30.27 in1025.1 mb 0.00 in0.0 mm 0.00 in0.0 mm 0.00 in0.0 mm
06:13 PM 56.7°F13.7°C 31.5°F-0.3°C 39% 3.2 mph ENE5.1 kmh ENE 4.0 mph6.4 kmh 30.27 in1025.1 mb 0.00 in0.0 mm 0.00 in0.0 mm 0.00 in0.0 mm
06:19 PM 56.3°F13.5°C 31.1°F-0.5°C 39% Calm Calm 4.0 mph6.4 kmh 30.30 in1026.1 mb 0.00 in0.0 mm 0.00 in0.0 mm 0.00 in0.0 mm
06:20 PM 98.8°F37.1°C 63.7°F17.6°C 32% 2.2 mph SE3.5 kmh SE 5.8 mph9.3 kmh 30.00 in1015.9 mb 0.00 in0.0 mm 0.00 in0.0 mm 0.00 in0.0 mm
06:24 PM 56.1°F13.4°C 31.7°F-0.2°C 40% Calm Calm 3.2 mph5.1 kmh 30.30 in1026.1 mb 0.00 in0.0 mm 0.00 in0.0 mm 0.00 in0.0 mm
06:29 PM 55.8°F13.2°C 31.4°F-0.3°C 40% Calm Calm -- 30.30 in1026.1 mb 0.00 in0.0 mm 0.00 in0.0 mm 0.00 in0.0 mm
06:32 PM 98.8°F37.1°C 63.7°F17.6°C 32% 2.2 mph SE3.5 kmh SE 5.8 mph9.3 kmh 30.00 in1015.9 mb 0.00 in0.0 mm 0.00 in0.0 mm 0.00 in0.0 mm
06:34 PM 55.6°F13.1°C 31.2°F-0.4°C 40% 2.0 mph ENE3.2 kmh ENE 2.6 mph4.2 kmh 30.30 in1026.1 mb 0.00 in0.0 mm 0.00 in0.0 mm 0.00 in0.0 mm
06:35 PM 98.8°F37.1°C 63.7°F17.6°C 32% 1.8 mph SSE2.9 kmh SSE 5.0 mph8.0 kmh 30.00 in1015.9 mb 0.00 in0.0 mm 0.00 in0.0 mm 0.00 in0.0 mm
06:39 PM 55.4°F13.0°C 31.0°F-0.6°C 40% Calm Calm 2.6 mph4.2 kmh 30.30 in1026.1 mb 0.00 in0.0 mm 0.00 in0.0 mm 0.00 in0.0 mm
06:41 PM 98.4°F36.9°C 63.3°F17.4°C 32% 3.4 mph SE5.5 kmh SE 5.0 mph8.0 kmh 30.00 in1015.9 mb 0.00 in0.0 mm 0.00 in0.0 mm 0.00 in0.0 mm
06:44 PM 55.4°F13.0°C 31.0°F-0.6°C 40% Calm Calm 2.2 mph3.5 kmh 30.30 in1026.1 mb 0.00 in0.0 mm 0.00 in0.0 mm 0.00 in0.0 mm
06:50 PM 54.9°F12.7°C 30.6°F-0.8°C 40% Calm Calm 2.2 mph3.5 kmh 30.30 in1026.1 mb 0.00 in0.0 mm 0.00 in0.0 mm 0.00 in0.0 mm
06:55 PM 54.7°F12.6°C 30.4°F-0.9°C 40% Calm Calm -- 30.30 in1026.1 mb 0.00 in0.0 mm 0.00 in0.0 mm 0.00 in0.0 mm
06:58 PM 98.6°F37.0°C 63.5°F17.5°C 32% 3.6 mph SE5.8 kmh SE 5.0 mph8.0 kmh 30.00 in1015.9 mb 0.00 in0.0 mm 0.00 in0.0 mm 0.00 in0.0 mm
07:00 PM 54.5°F12.5°C 30.2°F-1.0°C 40% Calm Calm -- 30.30 in1026.1 mb 0.00 in0.0 mm 0.00 in0.0 mm 0.00 in0.0 mm
07:02 PM 99.0°F37.2°C 63.8°F17.7°C 32% 2.4 mph ESE3.9 kmh ESE 5.0 mph8.0 kmh 30.00 in1015.9 mb 0.00 in0.0 mm 0.00 in0.0 mm 0.00 in0.0 mm
07:05 PM 54.1°F12.3°C 30.6°F-0.8°C 41% Calm Calm -- 30.33 in1027.1 mb 0.00 in0.0 mm 0.00 in0.0 mm 0.00 in0.0 mm
07:10 PM 53.8°F12.1°C 31.0°F-0.6°C 42% 2.8 mph ENE4.5 kmh ENE 4.4 mph7.1 kmh 30.33 in1027.1 mb 0.00 in0.0 mm 0.00 in0.0 mm 0.00 in0.0 mm
07:15 PM 53.4°F11.9°C 30.6°F-0.8°C 42% 2.4 mph ENE3.9 kmh ENE 4.4 mph7.1 kmh 30.33 in1027.1 mb 0.00 in0.0 mm 0.00 in0.0 mm 0.00 in0.0 mm
07:17 PM 99.0°F37.2°C 63.8°F17.7°C 32% 2.3 mph ESE3.7 kmh ESE 5.0 mph8.0 kmh 30.00 in1015.9 mb 0.00 in0.0 mm 0.00 in0.0 mm 0.00 in0.0 mm
07:20 PM 53.4°F11.9°C 30.6°F-0.8°C 42% Calm Calm 4.4 mph7.1 kmh 30.30 in1026.1 mb 0.00 in0.0 mm 0.00 in0.0 mm 0.00 in0.0 mm
07:25 PM 53.4°F11.9°C 31.3°F-0.4°C 43% Calm Calm 2.6 mph4.2 kmh 30.30 in1026.1 mb 0.00 in0.0 mm 0.00 in0.0 mm 0.00 in0.0 mm
07:30 PM 53.1°F11.7°C 31.0°F-0.6°C 43% Calm Calm -- 30.30 in1026.1 mb 0.00 in0.0 mm 0.00 in0.0 mm 0.00 in0.0 mm
07:35 PM 52.9°F11.6°C 31.5°F-0.3°C 44% Calm Calm -- 30.33 in1027.1 mb 0.00 in0.0 mm 0.00 in0.0 mm 0.00 in0.0 mm
07:40 PM 52.7°F11.5°C 31.3°F-0.4°C 44% Calm Calm -- 30.33 in1027.1 mb 0.00 in0.0 mm 0.00 in0.0 mm 0.00 in0.0 mm
07:41 PM 99.0°F37.2°C 63.8°F17.7°C 32% 2.5 mph E4.0 kmh E 5.0 mph8.0 kmh 30.00 in1015.9 mb 0.00 in0.0 mm 0.00 in0.0 mm 0.00 in0.0 mm
07:45 PM 52.5°F11.4°C 31.1°F-0.5°C 44% Calm Calm -- 30.33 in1027.1 mb 0.00 in0.0 mm 0.00 in0.0 mm 0.00 in0.0 mm
07:48 PM 99.0°F37.2°C 63.8°F17.7°C 32% 2.7 mph E4.3 kmh E 5.0 mph8.0 kmh 30.00 in1015.9 mb 0.00 in0.0 mm 0.00 in0.0 mm 0.00 in0.0 mm
07:52 PM 52.3°F11.3°C 30.9°F-0.6°C 44% 3.3 mph ENE5.3 kmh ENE 4.0 mph6.4 kmh 30.33 in1027.1 mb 0.00 in0.0 mm 0.00 in0.0 mm 0.00 in0.0 mm
07:54 PM 99.0°F37.2°C 63.8°F17.7°C 32% 3.3 mph E5.3 kmh E 5.0 mph8.0 kmh 30.00 in1015.9 mb 0.00 in0.0 mm 0.00 in0.0 mm 0.00 in0.0 mm
07:57 PM 52.2°F11.2°C 31.4°F-0.3°C 45% Calm Calm 4.0 mph6.4 kmh 30.33 in1027.1 mb 0.00 in0.0 mm 0.00 in0.0 mm 0.00 in0.0 mm
08:00 PM 98.8°F37.1°C 63.7°F17.6°C 32% 4.7 mph SE7.6 kmh SE 6.2 mph10.0 kmh 30.00 in1015.9 mb 0.00 in0.0 mm 0.00 in0.0 mm 0.00 in0.0 mm
08:02 PM 52.0°F11.1°C 31.3°F-0.4°C 45% Calm Calm 2.2 mph3.5 kmh 30.33 in1027.1 mb 0.00 in0.0 mm 0.00 in0.0 mm 0.00 in0.0 mm
08:05 PM 98.4°F36.9°C 63.3°F17.4°C 32% 5.1 mph ESE8.2 kmh ESE 6.2 mph10.0 kmh 30.00 in1015.9 mb 0.00 in0.0 mm 0.00 in0.0 mm 0.00 in0.0 mm
08:07 PM 51.6°F10.9°C 30.9°F-0.6°C 45% Calm Calm -- 30.33 in1027.1 mb 0.00 in0.0 mm 0.00 in0.0 mm 0.00 in0.0 mm
08:12 PM 51.3°F10.7°C 31.2°F-0.4°C 46% Calm Calm -- 30.33 in1027.1 mb 0.00 in0.0 mm 0.00 in0.0 mm 0.00 in0.0 mm
08:17 PM 98.2°F36.8°C 63.1°F17.3°C 32% 4.6 mph E7.4 kmh E 6.2 mph10.0 kmh 30.00 in1015.9 mb 0.00 in0.0 mm 0.00 in0.0 mm 0.00 in0.0 mm
08:23 PM 50.7°F10.4°C 30.7°F-0.7°C 46% Calm Calm -- 30.33 in1027.1 mb 0.00 in0.0 mm 0.00 in0.0 mm 0.00 in0.0 mm
08:28 PM 50.7°F10.4°C 30.7°F-0.7°C 46% Calm Calm -- 30.33 in1027.1 mb 0.00 in0.0 mm 0.00 in0.0 mm 0.00 in0.0 mm
08:31 PM 98.2°F36.8°C 63.1°F17.3°C 32% 3.7 mph E6.0 kmh E 6.2 mph10.0 kmh 30.00 in1015.9 mb 0.00 in0.0 mm 0.00 in0.0 mm 0.00 in0.0 mm
08:33 PM 50.5°F10.3°C 30.5°F-0.8°C 46% Calm Calm -- 30.33 in1027.1 mb 0.00 in0.0 mm 0.00 in0.0 mm 0.00 in0.0 mm
08:37 PM 98.4°F36.9°C 63.3°F17.4°C 32% 3.9 mph E6.3 kmh E 6.2 mph10.0 kmh 30.00 in1015.9 mb 0.00 in0.0 mm 0.00 in0.0 mm 0.00 in0.0 mm
08:38 PM 50.4°F10.2°C 30.4°F-0.9°C 46% Calm Calm -- 30.33 in1027.1 mb 0.00 in0.0 mm 0.00 in0.0 mm 0.00 in0.0 mm
08:43 PM 50.4°F10.2°C 31.0°F-0.6°C 47% Calm Calm -- 30.33 in1027.1 mb 0.00 in0.0 mm 0.00 in0.0 mm 0.00 in0.0 mm
08:48 PM 50.2°F10.1°C 30.8°F-0.7°C 47% Calm Calm -- 30.33 in1027.1 mb 0.00 in0.0 mm 0.00 in0.0 mm 0.00 in0.0 mm
08:54 PM 50.2°F10.1°C 30.8°F-0.7°C 47% Calm Calm -- 30.33 in1027.1 mb 0.00 in0.0 mm 0.00 in0.0 mm 0.00 in0.0 mm
08:59 PM 98.4°F36.9°C 63.3°F17.4°C 32% 3.4 mph E5.5 kmh E 6.2 mph10.0 kmh 30.00 in1015.9 mb 0.00 in0.0 mm 0.00 in0.0 mm 0.00 in0.0 mm
09:06 PM 50.2°F10.1°C 30.8°F-0.7°C 47% Calm Calm -- 30.33 in1027.1 mb 0.00 in0.0 mm 0.00 in0.0 mm 0.00 in0.0 mm
09:11 PM 50.2°F10.1°C 30.8°F-0.7°C 47% 3.2 mph ENE5.1 kmh ENE 4.0 mph6.4 kmh 30.33 in1027.1 mb 0.00 in0.0 mm 0.00 in0.0 mm 0.00 in0.0 mm
09:13 PM 98.4°F36.9°C 63.3°F17.4°C 32% 2.8 mph E4.5 kmh E 6.2 mph10.0 kmh 30.00 in1015.9 mb 0.00 in0.0 mm 0.00 in0.0 mm 0.00 in0.0 mm
09:16 PM 50.5°F10.3°C 31.7°F-0.2°C 48% 2.2 mph ENE3.5 kmh ENE 4.0 mph6.4 kmh 30.33 in1027.1 mb 0.00 in0.0 mm 0.00 in0.0 mm 0.00 in0.0 mm
09:21 PM 50.4°F10.2°C 31.6°F-0.2°C 48% Calm Calm 4.0 mph6.4 kmh 30.33 in1027.1 mb 0.00 in0.0 mm 0.00 in0.0 mm 0.00 in0.0 mm
09:25 PM 98.4°F36.9°C 63.3°F17.4°C 32% 1.8 mph ENE2.9 kmh ENE 6.2 mph10.0 kmh 30.00 in1015.9 mb 0.00 in0.0 mm 0.00 in0.0 mm 0.00 in0.0 mm
09:26 PM 50.0°F10.0°C 31.2°F-0.4°C 48% Calm Calm -- 30.33 in1027.1 mb 0.00 in0.0 mm 0.00 in0.0 mm 0.00 in0.0 mm
09:31 PM 49.8°F9.9°C 31.6°F-0.2°C 50% Calm Calm -- 30.33 in1027.1 mb 0.00 in0.0 mm 0.00 in0.0 mm 0.00 in0.0 mm
09:33 PM 98.2°F36.8°C 63.1°F17.3°C 32% 2.6 mph E4.2 kmh E 5.0 mph8.0 kmh 30.00 in1015.9 mb 0.00 in0.0 mm 0.00 in0.0 mm 0.00 in0.0 mm
09:36 PM 98.4°F36.9°C 63.3°F17.4°C 32% 2.4 mph E3.9 kmh E 4.4 mph7.1 kmh 30.00 in1015.9 mb 0.00 in0.0 mm 0.00 in0.0 mm 0.00 in0.0 mm
09:37 PM 49.6°F9.8°C 31.4°F-0.3°C 50% Calm Calm -- 30.33 in1027.1 mb 0.00 in0.0 mm 0.00 in0.0 mm 0.00 in0.0 mm
09:41 PM 98.6°F37.0°C 63.5°F17.5°C 32% 2.4 mph E3.9 kmh E 4.4 mph7.1 kmh 30.00 in1015.9 mb 0.00 in0.0 mm 0.00 in0.0 mm 0.00 in0.0 mm
09:42 PM 50.0°F10.0°C 31.2°F-0.4°C 48% Calm Calm -- 30.33 in1027.1 mb 0.00 in0.0 mm 0.00 in0.0 mm 0.00 in0.0 mm
09:48 PM 50.4°F10.2°C 31.6°F-0.2°C 48% Calm Calm -- 30.33 in1027.1 mb 0.00 in0.0 mm 0.00 in0.0 mm 0.00 in0.0 mm
09:50 PM 98.8°F37.1°C 63.7°F17.6°C 32% 3.1 mph E5.0 kmh E 4.4 mph7.1 kmh 30.00 in1015.9 mb 0.00 in0.0 mm 0.00 in0.0 mm 0.00 in0.0 mm
09:53 PM 50.7°F10.4°C 31.9°F-0.1°C 48% Calm Calm -- 30.33 in1027.1 mb 0.00 in0.0 mm 0.00 in0.0 mm 0.00 in0.0 mm
09:58 PM 51.1°F10.6°C 32.2°F0.1°C 48% Calm Calm -- 30.33 in1027.1 mb 0.00 in0.0 mm 0.00 in0.0 mm 0.00 in0.0 mm
10:03 PM 51.1°F10.6°C 32.8°F0.4°C 50% Calm Calm -- 30.33 in1027.1 mb 0.00 in0.0 mm 0.00 in0.0 mm 0.00 in0.0 mm
10:09 PM 50.9°F10.5°C 33.2°F0.7°C 51% Calm Calm -- 30.33 in1027.1 mb 0.00 in0.0 mm 0.00 in0.0 mm 0.00 in0.0 mm
10:14 PM 50.9°F10.5°C 32.6°F0.3°C 50% Calm Calm -- 30.33 in1027.1 mb 0.00 in0.0 mm 0.00 in0.0 mm 0.00 in0.0 mm
10:19 PM 51.3°F10.7°C 33.0°F0.6°C 50% Calm Calm -- 30.33 in1027.1 mb 0.00 in0.0 mm 0.00 in0.0 mm 0.00 in0.0 mm
10:24 PM 51.4°F10.8°C 32.5°F0.3°C 48% Calm Calm -- 30.33 in1027.1 mb 0.00 in0.0 mm 0.00 in0.0 mm 0.00 in0.0 mm
10:29 PM 51.4°F10.8°C 33.7°F0.9°C 51% Calm Calm -- 30.33 in1027.1 mb 0.00 in0.0 mm 0.00 in0.0 mm 0.00 in0.0 mm
10:34 PM 51.4°F10.8°C 33.1°F0.6°C 50% Calm Calm -- 30.33 in1027.1 mb 0.00 in0.0 mm 0.00 in0.0 mm 0.00 in0.0 mm
10:35 PM 98.8°F37.1°C 63.7°F17.6°C 32% 4.0 mph ESE6.4 kmh ESE 4.0 mph6.4 kmh 30.00 in1015.9 mb 0.00 in0.0 mm 0.00 in0.0 mm 0.00 in0.0 mm
10:36 PM 98.6°F37.0°C 62.5°F16.9°C 31% 3.3 mph ESE5.3 kmh ESE 4.0 mph6.4 kmh 30.00 in1015.9 mb 0.00 in0.0 mm 0.00 in0.0 mm 0.00 in0.0 mm
10:39 PM 51.6°F10.9°C 33.3°F0.7°C 50% Calm Calm -- 30.33 in1027.1 mb 0.00 in0.0 mm 0.00 in0.0 mm 0.00 in0.0 mm
10:44 PM 51.6°F10.9°C 33.8°F1.0°C 51% Calm Calm -- 30.33 in1027.1 mb 0.00 in0.0 mm 0.00 in0.0 mm 0.00 in0.0 mm
10:49 PM 51.6°F10.9°C 33.3°F0.7°C 50% Calm Calm -- 30.33 in1027.1 mb 0.00 in0.0 mm 0.00 in0.0 mm 0.00 in0.0 mm
10:54 PM 51.6°F10.9°C 33.3°F0.7°C 50% Calm Calm -- 30.33 in1027.1 mb 0.00 in0.0 mm 0.00 in0.0 mm 0.00 in0.0 mm
10:58 PM 98.6°F37.0°C 63.5°F17.5°C 32% 3.5 mph SE5.6 kmh SE 4.4 mph7.1 kmh 30.00 in1015.9 mb 0.00 in0.0 mm 0.00 in0.0 mm 0.00 in0.0 mm
10:59 PM 51.8°F11.0°C 32.9°F0.5°C 48% Calm Calm -- 30.33 in1027.1 mb 0.00 in0.0 mm 0.00 in0.0 mm 0.00 in0.0 mm
11:04 PM 52.0°F11.1°C 33.6°F0.9°C 50% Calm Calm -- 30.33 in1027.1 mb 0.00 in0.0 mm 0.00 in0.0 mm 0.00 in0.0 mm
11:07 PM 98.4°F36.9°C 63.3°F17.4°C 32% 4.7 mph SE7.6 kmh SE 5.0 mph8.0 kmh 30.00 in1015.9 mb 0.00 in0.0 mm 0.00 in0.0 mm 0.00 in0.0 mm
11:09 PM 52.0°F11.1°C 33.1°F0.6°C 48% Calm Calm -- 30.33 in1027.1 mb 0.00 in0.0 mm 0.00 in0.0 mm 0.00 in0.0 mm
11:11 PM 98.1°F36.7°C 63.1°F17.3°C 32% 4.5 mph SSE7.2 kmh SSE 5.0 mph8.0 kmh 30.00 in1015.9 mb 0.00 in0.0 mm 0.00 in0.0 mm 0.00 in0.0 mm
11:14 PM 52.2°F11.2°C 33.8°F1.0°C 50% Calm Calm -- 30.33 in1027.1 mb 0.00 in0.0 mm 0.00 in0.0 mm 0.00 in0.0 mm
11:19 PM 52.0°F11.1°C 34.2°F1.2°C 51% 4.0 mph SSE6.4 kmh SSE 4.4 mph7.1 kmh 30.33 in1027.1 mb 0.00 in0.0 mm 0.00 in0.0 mm 0.00 in0.0 mm
11:24 PM 97.3°F36.3°C 62.4°F16.9°C 32% 4.5 mph SSE7.2 kmh SSE 5.0 mph8.0 kmh 30.00 in1015.9 mb 0.00 in0.0 mm 0.00 in0.0 mm 0.00 in0.0 mm
11:26 PM 97.2°F36.2°C 62.3°F16.8°C 32% 4.3 mph SE6.9 kmh SE 5.0 mph8.0 kmh 30.00 in1015.9 mb 0.00 in0.0 mm 0.00 in0.0 mm 0.00 in0.0 mm
11:30 PM 51.8°F11.0°C 35.1°F1.7°C 53% Calm Calm 4.0 mph6.4 kmh 30.33 in1027.1 mb 0.00 in0.0 mm 0.00 in0.0 mm 0.00 in0.0 mm
11:35 PM 51.8°F11.0°C 35.1°F1.7°C 53% Calm Calm -- 30.30 in1026.1 mb 0.00 in0.0 mm 0.00 in0.0 mm 0.00 in0.0 mm
11:41 PM 51.8°F11.0°C 34.6°F1.4°C 52% Calm Calm -- 30.30 in1026.1 mb 0.00 in0.0 mm 0.00 in0.0 mm 0.00 in0.0 mm
11:47 PM 52.0°F11.1°C 34.8°F1.6°C 52% Calm Calm -- 30.33 in1027.1 mb 0.00 in0.0 mm 0.00 in0.0 mm 0.00 in0.0 mm
11:52 PM 52.0°F11.1°C 34.8°F1.6°C 52% Calm Calm -- 30.33 in1027.1 mb 0.00 in0.0 mm 0.00 in0.0 mm 0.00 in0.0 mm
11:57 PM 52.3°F11.3°C 34.5°F1.4°C 51% 2.1 mph SE3.4 kmh SE 2.6 mph4.2 kmh 30.33 in1027.1 mb 0.00 in0.0 mm 0.00 in0.0 mm 0.00 in0.0 mm